Virginia City Highlands, Nevada
Current Conditions -  °F | °C
As of 8:55 PM on Wednesday 26 Nov 2014 (Local Time) from KRNO Reporting Station
Broken Clouds Broken Clouds  
Wind Chill: 52°   Ceiling: 25000
Heat Index: 52°   Visibility: 10mi
Dew Point: 28°   Wind: 3mph
Humidity: 40%   Direction: 30°NNE
Pressure: 30.31"   Gusts: NA
Location:  39.3892°N, 119.693°W
Report Text: KRNO 270455Z 03003KT 10SM SCT180 BKN250 11/M02 A3031 RMK AO2 SLP251 T01111022
Loading
Personal Weather Stations






























Interactive Weather Map New forecast layout! Learn more

10-Day Weather Forecast

Advertisements
Track Severe Weather on mobile